Time;durP1;ratioP1;P1;durP2;ratioP2;P2;SDS_P1;SDS_P2;PMS_P1;PMS_P2;Temp;Humidity;BMP_temperature;BMP_pressure;BME280_temperature;BME280_humidity;BME280_pressure;Samples;Min_cycle;Max_cycle;Signal;HPM_P1;HPM_P2
2023/09/20 00:01:12;;;;;;;2.50;1.80;;;15.40;99.90;;;;;;467142;253;28901;-73
2023/09/20 00:03:12;;;;;;;2.93;1.87;;;15.50;99.90;;;;;;467086;249;28919;-72
2023/09/20 00:05:15;;;;;;;1.80;1.70;;;15.40;99.90;;;;;;467150;253;28631;-72
2023/09/20 00:07:14;;;;;;;3.33;2.00;;;15.40;99.90;;;;;;467063;254;28847;-74
2023/09/20 00:09:17;;;;;;;3.17;1.77;;;15.50;99.90;;;;;;467177;253;28832;-72
2023/09/20 00:11:18;;;;;;;2.40;1.93;;;15.40;99.90;;;;;;467128;254;28946;-72
2023/09/20 00:13:18;;;;;;;3.03;1.57;;;15.40;99.90;;;;;;467125;254;29374;-72
2023/09/20 00:15:19;;;;;;;4.43;1.70;;;15.40;99.90;;;;;;467140;250;29335;-72
2023/09/20 00:17:21;;;;;;;1.73;1.63;;;15.40;99.90;;;;;;467180;253;29019;-75
2023/09/20 00:19:22;;;;;;;1.73;1.20;;;15.40;99.90;;;;;;467178;253;28954;-72
2023/09/20 00:21:26;;;;;;;2.60;1.90;;;15.40;99.90;;;;;;467167;253;28948;-72
2023/09/20 00:23:24;;;;;;;3.77;1.90;;;15.40;99.90;;;;;;466852;249;28882;-72
2023/09/20 00:25:27;;;;;;;3.27;1.80;;;15.40;99.90;;;;;;467149;253;28858;-73
2023/09/20 00:27:27;;;;;;;2.50;1.70;;;15.40;99.90;;;;;;467167;253;28882;-74
2023/09/20 00:29:28;;;;;;;2.70;1.70;;;15.30;99.90;;;;;;467176;253;28829;-72
2023/09/20 00:31:29;;;;;;;1.90;1.70;;;15.40;99.90;;;;;;467144;253;28993;-72
2023/09/20 00:33:31;;;;;;;3.13;1.50;;;15.40;99.90;;;;;;467157;254;28831;-71
2023/09/20 00:35:32;;;;;;;2.20;1.90;;;15.40;99.90;;;;;;467187;253;28824;-72
2023/09/20 00:37:33;;;;;;;1.97;1.77;;;15.40;99.90;;;;;;467180;253;29485;-72
2023/09/20 00:39:36;;;;;;;2.90;1.47;;;15.40;99.90;;;;;;467151;253;29356;-72
2023/09/20 00:41:36;;;;;;;3.30;1.83;;;15.40;99.90;;;;;;467056;253;29534;-72
2023/09/20 00:43:37;;;;;;;4.40;1.97;;;15.40;99.90;;;;;;467143;253;29414;-73
2023/09/20 00:45:40;;;;;;;1.73;1.63;;;15.40;99.90;;;;;;467152;253;28512;-72
2023/09/20 00:47:43;;;;;;;3.30;1.90;;;15.40;99.90;;;;;;467089;250;28878;-72
2023/09/20 00:49:45;;;;;;;3.00;1.83;;;15.40;99.90;;;;;;466865;254;28813;-72
2023/09/20 00:51:44;;;;;;;2.40;1.50;;;15.30;99.90;;;;;;466815;254;28899;-72
2023/09/20 00:53:44;;;;;;;2.10;1.80;;;15.30;99.90;;;;;;467036;254;28956;-74
2023/09/20 00:55:44;;;;;;;2.23;1.80;;;15.40;99.90;;;;;;467118;254;28618;-72
2023/09/20 00:57:46;;;;;;;2.27;1.70;;;15.30;99.90;;;;;;467138;254;28990;-72
2023/09/20 00:59:47;;;;;;;1.60;1.50;;;15.30;99.90;;;;;;467086;254;28888;-72
2023/09/20 01:01:48;;;;;;;4.67;1.73;;;15.30;99.90;;;;;;467135;253;28869;-72
2023/09/20 01:03:51;;;;;;;1.80;1.60;;;15.30;99.90;;;;;;467072;253;29444;-72
2023/09/20 01:05:51;;;;;;;2.03;1.87;;;15.40;99.90;;;;;;467002;250;29359;-72
2023/09/20 01:07:52;;;;;;;1.90;1.70;;;15.40;99.90;;;;;;467084;253;29385;-72
2023/09/20 01:09:53;;;;;;;1.90;1.80;;;15.30;99.90;;;;;;467069;253;29263;-72
2023/09/20 01:11:55;;;;;;;2.30;1.90;;;15.30;99.90;;;;;;467123;254;28886;-72
2023/09/20 01:13:56;;;;;;;2.30;2.07;;;15.30;99.90;;;;;;467099;253;28894;-73
2023/09/20 01:16:01;;;;;;;1.90;1.63;;;15.30;99.90;;;;;;467079;253;28819;-72
2023/09/20 01:17:59;;;;;;;1.83;1.70;;;15.30;99.90;;;;;;466921;254;28985;-72
2023/09/20 01:20:01;;;;;;;4.33;2.20;;;15.30;99.90;;;;;;467166;253;28807;-72
2023/09/20 01:22:01;;;;;;;4.13;1.70;;;15.30;99.90;;;;;;467101;254;28825;-72
2023/09/20 01:24:02;;;;;;;2.60;1.93;;;15.30;99.90;;;;;;467127;253;28895;-73
2023/09/20 01:26:03;;;;;;;4.20;2.13;;;15.30;99.90;;;;;;467142;253;28883;-72
2023/09/20 01:28:04;;;;;;;1.63;1.53;;;15.30;99.90;;;;;;467096;254;29416;-72
2023/09/20 01:30:08;;;;;;;2.73;1.97;;;15.30;99.90;;;;;;467147;253;29531;-74
2023/09/20 01:32:07;;;;;;;3.57;1.80;;;15.30;99.90;;;;;;467049;254;29391;-72
2023/09/20 01:34:09;;;;;;;2.97;2.03;;;15.40;99.90;;;;;;467144;254;29465;-72
2023/09/20 01:36:10;;;;;;;3.27;1.90;;;15.30;99.90;;;;;;467109;254;28872;-72
2023/09/20 01:38:11;;;;;;;2.90;1.90;;;15.40;99.90;;;;;;467127;254;28853;-72
2023/09/20 01:40:15;;;;;;;4.60;2.10;;;15.40;99.90;;;;;;467151;253;28960;-72
2023/09/20 01:42:15;;;;;;;2.20;1.60;;;15.40;99.90;;;;;;466856;253;28828;-72
2023/09/20 01:44:15;;;;;;;2.40;1.80;;;15.40;99.90;;;;;;467019;254;28889;-72
2023/09/20 01:46:16;;;;;;;2.23;1.90;;;15.40;99.90;;;;;;467114;254;28882;-73
2023/09/20 01:48:17;;;;;;;4.53;1.90;;;15.40;99.90;;;;;;467153;253;28895;-72
2023/09/20 01:50:23;;;;;;;3.10;1.73;;;15.40;99.90;;;;;;467145;253;28900;-73
2023/09/20 01:52:20;;;;;;;2.93;1.83;;;15.40;99.90;;;;;;466706;254;29453;-72
2023/09/20 01:54:21;;;;;;;3.47;2.27;;;15.40;99.90;;;;;;467121;253;29476;-72
2023/09/20 01:56:22;;;;;;;4.17;2.30;;;15.40;99.90;;;;;;467140;253;29459;-72
2023/09/20 01:58:23;;;;;;;3.10;1.83;;;15.40;99.90;;;;;;467117;254;29290;-72
2023/09/20 02:00:31;;;;;;;1.50;1.40;;;15.40;99.90;;;;;;467135;253;28852;-72
2023/09/20 02:02:32;;;;;;;1.90;1.73;;;15.40;99.90;;;;;;467124;253;29295;-72
2023/09/20 02:04:33;;;;;;;2.13;1.90;;;15.40;99.90;;;;;;467122;253;28856;-72
2023/09/20 02:06:34;;;;;;;1.80;1.70;;;15.40;99.90;;;;;;467146;253;28851;-74
2023/09/20 02:08:36;;;;;;;3.10;2.00;;;15.40;99.90;;;;;;467131;253;29013;-72
2023/09/20 02:10:40;;;;;;;2.70;1.80;;;15.40;99.90;;;;;;467098;254;28876;-69
2023/09/20 02:12:42;;;;;;;2.90;1.60;;;15.40;99.90;;;;;;467097;254;28931;-71
2023/09/20 02:14:42;;;;;;;2.27;1.70;;;15.40;99.90;;;;;;467131;253;29231;-73
2023/09/20 02:16:44;;;;;;;2.00;1.90;;;15.50;99.90;;;;;;467140;253;29001;-72
2023/09/20 02:18:46;;;;;;;1.80;1.70;;;15.50;99.90;;;;;;467123;253;29362;-72
2023/09/20 02:20:46;;;;;;;3.47;1.90;;;15.50;99.90;;;;;;467043;254;29277;-72
2023/09/20 02:22:47;;;;;;;4.10;1.77;;;15.50;99.90;;;;;;467117;253;29394;-72
2023/09/20 02:24:49;;;;;;;2.43;1.90;;;15.50;99.90;;;;;;467130;250;29505;-73
2023/09/20 02:26:50;;;;;;;2.07;1.87;;;15.50;99.90;;;;;;467090;253;28871;-72
2023/09/20 02:28:51;;;;;;;6.10;2.40;;;15.50;99.90;;;;;;467067;254;28876;-72
2023/09/20 02:30:52;;;;;;;2.50;1.67;;;15.50;99.90;;;;;;466934;253;28844;-72
2023/09/20 02:32:55;;;;;;;1.67;1.57;;;15.50;99.90;;;;;;467136;253;28860;-72
2023/09/20 02:34:55;;;;;;;2.07;1.60;;;15.50;99.90;;;;;;467062;253;28878;-72
2023/09/20 02:36:56;;;;;;;3.27;1.80;;;15.50;99.90;;;;;;467134;253;28825;-72
2023/09/20 02:38:59;;;;;;;4.67;1.87;;;15.50;99.90;;;;;;467124;253;28878;-72
2023/09/20 02:40:59;;;;;;;4.80;2.00;;;15.50;99.90;;;;;;467066;254;28841;-74
2023/09/20 02:43:00;;;;;;;1.93;1.77;;;15.50;99.90;;;;;;467114;253;29315;-72
2023/09/20 02:45:02;;;;;;;2.20;2.00;;;15.40;99.90;;;;;;467120;253;29362;-72
2023/09/20 02:47:03;;;;;;;2.23;1.90;;;15.40;99.90;;;;;;467069;253;29365;-72
2023/09/20 02:49:04;;;;;;;2.83;1.90;;;15.40;99.90;;;;;;467145;254;29461;-72
2023/09/20 02:51:05;;;;;;;2.30;1.60;;;15.40;99.90;;;;;;467163;253;28880;-74
2023/09/20 02:53:06;;;;;;;3.43;1.80;;;15.30;99.90;;;;;;467160;253;28826;-72
2023/09/20 02:55:07;;;;;;;1.83;1.73;;;15.30;99.90;;;;;;467180;253;28956;-72
2023/09/20 02:57:10;;;;;;;2.13;1.90;;;15.30;99.90;;;;;;467117;253;28922;-72
2023/09/20 02:59:10;;;;;;;1.70;1.60;;;15.30;99.90;;;;;;467075;254;28890;-72
2023/09/20 03:01:11;;;;;;;12.50;2.10;;;15.30;99.90;;;;;;467147;253;28662;-72
2023/09/20 03:03:16;;;;;;;2.13;1.70;;;15.30;99.90;;;;;;467160;253;28839;-72
2023/09/20 03:05:15;;;;;;;7.13;1.90;;;15.30;99.90;;;;;;466773;254;28902;-72
2023/09/20 03:07:15;;;;;;;2.47;1.40;;;15.30;99.90;;;;;;467085;254;29406;-72
2023/09/20 03:09:17;;;;;;;2.90;1.80;;;15.20;99.90;;;;;;467183;254;29397;-72
2023/09/20 03:11:17;;;;;;;2.40;1.87;;;15.20;99.90;;;;;;467176;253;29444;-73
2023/09/20 03:13:19;;;;;;;3.40;1.53;;;15.20;99.90;;;;;;467171;249;29478;-72
2023/09/20 03:15:23;;;;;;;2.23;2.00;;;15.10;99.90;;;;;;467163;249;28864;-72
2023/09/20 03:17:24;;;;;;;5.60;1.97;;;15.10;99.90;;;;;;467144;254;28962;-72
2023/09/20 03:19:25;;;;;;;4.50;2.00;;;15.10;99.90;;;;;;467203;253;28947;-74
2023/09/20 03:21:28;;;;;;;1.87;1.70;;;15.10;99.90;;;;;;467188;253;28852;-72
2023/09/20 03:23:28;;;;;;;4.43;1.70;;;15.10;99.90;;;;;;467154;253;28874;-72
2023/09/20 03:25:35;;;;;;;3.60;2.20;;;15.10;99.90;;;;;;467149;253;28860;-72
2023/09/20 03:27:30;;;;;;;2.73;1.90;;;15.10;99.90;;;;;;466793;254;28613;-72
2023/09/20 03:29:32;;;;;;;1.90;1.67;;;15.10;99.90;;;;;;467176;254;28863;-74
2023/09/20 03:31:33;;;;;;;2.70;1.70;;;15.10;99.90;;;;;;467172;253;29374;-72
2023/09/20 03:33:34;;;;;;;2.40;1.97;;;15.10;99.90;;;;;;467133;253;29357;-72
2023/09/20 03:35:35;;;;;;;1.43;1.40;;;15.00;99.90;;;;;;467113;253;29421;-72
2023/09/20 03:37:40;;;;;;;5.13;2.00;;;15.00;99.90;;;;;;467155;254;29429;-72
2023/09/20 03:39:42;;;;;;;3.07;1.63;;;15.00;99.90;;;;;;467169;249;28891;-72
2023/09/20 03:41:42;;;;;;;2.13;1.90;;;15.00;99.90;;;;;;467127;253;28879;-72
2023/09/20 03:43:44;;;;;;;2.33;1.70;;;15.00;99.90;;;;;;467057;249;29494;-72
2023/09/20 03:45:45;;;;;;;2.23;1.77;;;14.90;99.90;;;;;;467049;253;29347;-72
2023/09/20 03:47:47;;;;;;;3.23;1.90;;;14.90;99.90;;;;;;467128;254;29555;-74
2023/09/20 03:49:47;;;;;;;2.43;1.70;;;14.90;99.90;;;;;;467108;254;29012;-72
2023/09/20 03:51:48;;;;;;;3.23;1.90;;;14.90;99.90;;;;;;467160;253;28559;-72
2023/09/20 03:53:50;;;;;;;2.07;1.70;;;15.00;99.90;;;;;;467136;253;28943;-72
2023/09/20 03:55:51;;;;;;;1.70;1.60;;;15.00;99.90;;;;;;467136;253;29390;-73
2023/09/20 03:57:52;;;;;;;1.70;1.60;;;15.00;99.90;;;;;;467167;253;29453;-73
2023/09/20 03:59:53;;;;;;;1.93;1.60;;;15.00;99.90;;;;;;467113;253;29262;-72
2023/09/20 04:01:55;;;;;;;1.70;1.60;;;15.00;99.90;;;;;;467066;249;29487;-72
2023/09/20 04:03:56;;;;;;;1.70;1.60;;;15.00;99.90;;;;;;467153;253;28543;-73
2023/09/20 04:05:58;;;;;;;2.40;2.03;;;15.00;99.90;;;;;;467134;253;28393;-72
2023/09/20 04:08:00;;;;;;;2.43;1.93;;;15.00;99.90;;;;;;467080;254;28890;-72
2023/09/20 04:10:02;;;;;;;1.80;1.70;;;14.90;99.90;;;;;;467057;254;28859;-72
2023/09/20 04:12:01;;;;;;;1.80;1.60;;;14.90;99.90;;;;;;467031;253;28617;-72
2023/09/20 04:14:02;;;;;;;1.87;1.70;;;14.90;99.90;;;;;;467157;253;28546;-73
2023/09/20 04:16:03;;;;;;;1.90;1.80;;;14.90;99.90;;;;;;467159;253;28616;-72
2023/09/20 04:18:08;;;;;;;1.80;1.70;;;14.90;99.90;;;;;;467122;249;28867;-72
2023/09/20 04:20:06;;;;;;;1.70;1.60;;;14.90;99.90;;;;;;466972;254;28819;-72
2023/09/20 04:22:07;;;;;;;2.60;1.67;;;14.90;99.90;;;;;;467165;253;29439;-72
2023/09/20 04:24:08;;;;;;;1.93;1.67;;;14.90;99.90;;;;;;467150;254;29042;-74
2023/09/20 04:26:10;;;;;;;1.87;1.77;;;14.90;99.90;;;;;;467130;253;29143;-72
2023/09/20 04:28:11;;;;;;;3.63;1.90;;;14.90;99.90;;;;;;467130;253;28965;-72
2023/09/20 04:30:13;;;;;;;2.90;2.60;;;14.90;99.90;;;;;;467145;253;28876;-72
2023/09/20 04:32:14;;;;;;;7.80;5.50;;;14.90;99.90;;;;;;467110;254;28587;-72
2023/09/20 04:34:15;;;;;;;9.07;5.10;;;14.90;99.90;;;;;;467132;249;28934;-72
2023/09/20 04:36:16;;;;;;;5.93;3.80;;;14.90;99.90;;;;;;467130;253;28625;-72
2023/09/20 04:38:17;;;;;;;4.63;2.97;;;14.90;99.90;;;;;;467116;253;28658;-72
2023/09/20 04:40:18;;;;;;;4.50;2.50;;;14.90;99.90;;;;;;467175;253;29237;-74
2023/09/20 04:42:20;;;;;;;4.93;2.73;;;14.90;99.90;;;;;;467146;253;28560;-72
2023/09/20 04:44:21;;;;;;;3.27;2.60;;;14.90;99.90;;;;;;467059;254;28848;-72
2023/09/20 04:46:23;;;;;;;3.03;1.93;;;14.80;99.90;;;;;;467140;253;28987;-72
2023/09/20 04:48:23;;;;;;;2.93;2.23;;;14.80;99.90;;;;;;467140;253;29393;-72
2023/09/20 04:50:25;;;;;;;3.77;2.40;;;14.80;99.90;;;;;;467164;254;29086;-73
2023/09/20 04:52:26;;;;;;;2.70;2.00;;;14.80;99.90;;;;;;467126;254;29064;-72
2023/09/20 04:54:27;;;;;;;2.10;1.63;;;14.80;99.90;;;;;;467126;254;28616;-73
2023/09/20 04:56:28;;;;;;;3.87;2.27;;;14.80;99.90;;;;;;467130;253;28532;-72
2023/09/20 04:58:30;;;;;;;2.10;1.80;;;14.80;99.90;;;;;;467157;253;28857;-72
2023/09/20 05:00:37;;;;;;;2.73;1.90;;;14.80;99.90;;;;;;467139;253;28867;-72
2023/09/20 05:02:32;;;;;;;2.83;1.77;;;14.80;99.90;;;;;;466822;253;28534;-72
2023/09/20 05:04:34;;;;;;;2.10;1.70;;;14.80;99.90;;;;;;467135;254;28895;-72
2023/09/20 05:06:35;;;;;;;1.97;1.83;;;14.80;99.90;;;;;;467149;250;28515;-74
2023/09/20 05:08:36;;;;;;;1.80;1.70;;;14.80;99.90;;;;;;467144;254;28526;-72
2023/09/20 05:10:37;;;;;;;1.83;1.57;;;14.80;99.90;;;;;;467148;253;28543;-73
2023/09/20 05:12:38;;;;;;;3.43;2.03;;;14.80;99.90;;;;;;467152;253;29428;-72
2023/09/20 05:14:40;;;;;;;1.50;1.40;;;14.80;99.90;;;;;;467025;253;29367;-72
2023/09/20 05:16:41;;;;;;;2.50;2.00;;;14.80;99.90;;;;;;467128;254;29292;-74
2023/09/20 05:18:42;;;;;;;1.60;1.50;;;14.80;99.90;;;;;;467154;253;28856;-72
2023/09/20 05:20:47;;;;;;;1.80;1.70;;;14.80;99.90;;;;;;467149;254;28440;-72
2023/09/20 05:22:47;;;;;;;1.80;1.63;;;14.80;99.90;;;;;;467154;253;28989;-72
2023/09/20 05:24:49;;;;;;;1.93;1.83;;;14.80;99.90;;;;;;467120;253;28598;-72
2023/09/20 05:26:50;;;;;;;1.80;1.70;;;14.90;99.90;;;;;;467137;253;28554;-72
2023/09/20 05:28:51;;;;;;;1.80;1.70;;;14.80;99.90;;;;;;467153;253;28889;-73
2023/09/20 05:30:52;;;;;;;1.60;1.50;;;14.90;99.90;;;;;;467142;253;28916;-72
2023/09/20 05:32:54;;;;;;;2.40;1.70;;;14.90;99.90;;;;;;467157;253;28396;-72
2023/09/20 05:34:55;;;;;;;2.50;1.60;;;14.90;99.90;;;;;;467119;254;28820;-72
2023/09/20 05:36:56;;;;;;;3.50;1.77;;;14.90;99.90;;;;;;467153;253;28269;-71
2023/09/20 05:38:57;;;;;;;2.57;1.87;;;14.90;99.90;;;;;;467131;253;28555;-72
2023/09/20 05:40:59;;;;;;;2.03;1.53;;;14.90;99.90;;;;;;467133;253;29319;-72
2023/09/20 05:43:03;;;;;;;3.43;2.03;;;15.00;99.90;;;;;;467136;253;28908;-72
2023/09/20 05:45:01;;;;;;;2.10;1.77;;;15.00;99.90;;;;;;466942;254;29117;-73
2023/09/20 05:47:03;;;;;;;2.13;1.93;;;15.00;99.90;;;;;;467139;253;28850;-72
2023/09/20 05:49:04;;;;;;;1.80;1.70;;;15.00;99.90;;;;;;467143;249;28929;-73
2023/09/20 05:51:05;;;;;;;4.73;2.17;;;15.10;99.90;;;;;;467148;253;28930;-72
2023/09/20 05:53:06;;;;;;;1.80;1.70;;;15.10;99.90;;;;;;467126;253;28861;-71
2023/09/20 05:55:08;;;;;;;2.83;2.07;;;15.20;99.90;;;;;;467146;253;28858;-74
2023/09/20 05:57:09;;;;;;;1.77;1.67;;;15.20;99.90;;;;;;467124;253;28842;-72
2023/09/20 05:59:10;;;;;;;2.50;1.97;;;15.20;99.90;;;;;;467105;253;28874;-69
2023/09/20 06:01:12;;;;;;;3.67;1.90;;;15.20;99.90;;;;;;467130;250;28590;-69
2023/09/20 06:03:12;;;;;;;2.03;1.53;;;15.30;99.90;;;;;;467090;249;28940;-72
2023/09/20 06:05:18;;;;;;;1.80;1.70;;;15.40;99.90;;;;;;467147;253;29381;-73
2023/09/20 06:07:15;;;;;;;2.90;1.80;;;15.40;99.90;;;;;;466657;254;29283;-72
2023/09/20 06:09:18;;;;;;;3.43;1.83;;;15.40;99.90;;;;;;467114;253;29460;-70
2023/09/20 06:11:18;;;;;;;1.73;1.50;;;15.50;99.90;;;;;;467020;254;29629;-72
2023/09/20 06:13:19;;;;;;;1.80;1.70;;;15.50;99.90;;;;;;467127;253;28517;-72
2023/09/20 06:15:20;;;;;;;1.90;1.80;;;15.50;99.90;;;;;;467132;253;28873;-73
2023/09/20 06:17:22;;;;;;;2.03;1.83;;;15.50;99.90;;;;;;467134;253;28843;-72
2023/09/20 06:19:23;;;;;;;4.77;1.93;;;15.50;99.90;;;;;;467141;253;28862;-72
2023/09/20 06:21:24;;;;;;;3.67;1.83;;;15.60;99.90;;;;;;467143;253;29223;-74
2023/09/20 06:23:26;;;;;;;3.73;1.70;;;15.60;99.90;;;;;;467154;253;28884;-72
2023/09/20 06:25:26;;;;;;;3.63;1.80;;;15.70;99.90;;;;;;467085;253;28900;-72
2023/09/20 06:27:31;;;;;;;1.73;1.63;;;15.70;99.90;;;;;;467178;253;29028;-72
2023/09/20 06:29:29;;;;;;;1.70;1.60;;;15.70;99.90;;;;;;466799;254;28854;-72
2023/09/20 06:31:30;;;;;;;4.10;1.60;;;15.70;99.90;;;;;;467158;253;29430;-75
2023/09/20 06:33:31;;;;;;;2.17;1.70;;;15.70;99.90;;;;;;467172;254;28938;-72
2023/09/20 06:35:33;;;;;;;1.97;1.77;;;15.70;99.90;;;;;;467184;253;28851;-72
2023/09/20 06:37:34;;;;;;;1.83;1.60;;;15.80;99.90;;;;;;467121;254;28832;-72
2023/09/20 06:39:35;;;;;;;1.80;1.70;;;15.80;99.90;;;;;;467075;254;29306;-73
2023/09/20 06:41:40;;;;;;;2.53;1.93;;;15.90;99.90;;;;;;467180;253;29484;-73
2023/09/20 06:43:38;;;;;;;1.90;1.80;;;15.90;99.90;;;;;;466816;254;29393;-72
2023/09/20 06:45:39;;;;;;;2.90;1.60;;;16.00;99.90;;;;;;467167;253;28902;-73
2023/09/20 06:47:40;;;;;;;3.33;1.70;;;16.00;99.90;;;;;;467170;253;28869;-73
2023/09/20 06:49:42;;;;;;;4.33;1.83;;;16.00;99.90;;;;;;467186;253;28928;-72
2023/09/20 06:51:43;;;;;;;2.00;1.50;;;16.00;99.90;;;;;;467215;253;28979;-72
2023/09/20 06:53:44;;;;;;;2.43;2.03;;;16.10;99.90;;;;;;467170;253;28992;-72
2023/09/20 06:55:48;;;;;;;2.63;1.97;;;16.10;99.90;;;;;;467146;253;28872;-72
2023/09/20 06:57:47;;;;;;;3.17;1.40;;;16.10;99.90;;;;;;467025;250;29076;-72
2023/09/20 06:59:51;;;;;;;2.00;1.80;;;16.10;99.90;;;;;;467136;254;28830;-72
2023/09/20 07:01:50;;;;;;;2.70;2.00;;;16.10;99.90;;;;;;466957;254;29029;-72
2023/09/20 07:03:52;;;;;;;1.73;1.63;;;16.10;99.90;;;;;;467090;254;30377;-72
2023/09/20 07:05:51;;;;;;;5.40;2.27;;;16.00;99.90;;;;;;467076;254;29330;-72
2023/09/20 07:07:53;;;;;;;3.37;1.97;;;16.10;99.90;;;;;;467153;253;29553;-73
2023/09/20 07:09:54;;;;;;;4.87;2.10;;;16.10;99.90;;;;;;467130;253;28970;-72
2023/09/20 07:11:55;;;;;;;2.80;1.77;;;16.10;99.90;;;;;;467144;253;28945;-72
2023/09/20 07:13:59;;;;;;;3.40;1.77;;;16.10;99.90;;;;;;467184;254;28975;-72
2023/09/20 07:15:58;;;;;;;3.90;1.87;;;16.10;99.90;;;;;;467153;253;28885;-72
2023/09/20 07:17:59;;;;;;;2.47;1.90;;;16.10;99.90;;;;;;467163;253;28959;-73
2023/09/20 07:20:00;;;;;;;2.57;1.93;;;16.10;99.90;;;;;;467137;253;29139;-72
2023/09/20 07:22:03;;;;;;;2.40;1.80;;;16.10;99.90;;;;;;467108;253;28983;-72
2023/09/20 07:24:03;;;;;;;2.10;1.90;;;16.10;99.90;;;;;;467103;254;29401;-73
2023/09/20 07:26:04;;;;;;;3.30;2.00;;;16.10;99.90;;;;;;467166;253;28863;-72
2023/09/20 07:28:06;;;;;;;3.53;1.77;;;16.10;99.90;;;;;;467141;253;29467;-73
2023/09/20 07:30:12;;;;;;;2.83;1.70;;;16.20;99.90;;;;;;467142;249;29460;-72
2023/09/20 07:32:08;;;;;;;2.47;2.00;;;16.10;99.90;;;;;;466757;254;29481;-72
2023/09/20 07:34:13;;;;;;;2.17;1.97;;;16.10;99.90;;;;;;467143;253;29668;-73
2023/09/20 07:36:11;;;;;;;2.77;2.00;;;16.20;99.90;;;;;;466788;254;28935;-73
2023/09/20 07:38:20;;;;;;;2.50;1.83;;;16.20;99.90;;;;;;467085;253;28974;-72
2023/09/20 07:40:19;;;;;;;2.30;2.00;;;16.20;99.90;;;;;;467019;254;28915;-72
2023/09/20 07:42:20;;;;;;;3.10;1.90;;;16.20;99.90;;;;;;467186;253;29623;-72
2023/09/20 07:44:24;;;;;;;2.90;1.77;;;16.30;99.90;;;;;;467139;249;28915;-73
2023/09/20 07:46:23;;;;;;;5.50;1.80;;;16.30;99.90;;;;;;467024;254;29026;-73
2023/09/20 07:48:27;;;;;;;2.67;1.73;;;16.40;99.90;;;;;;467108;254;28861;-72
2023/09/20 07:50:26;;;;;;;3.37;2.10;;;16.40;99.90;;;;;;466965;254;29107;-74
2023/09/20 07:52:27;;;;;;;3.80;1.83;;;16.40;99.90;;;;;;467147;253;29143;-72
2023/09/20 07:54:27;;;;;;;7.70;1.57;;;16.50;99.90;;;;;;467139;253;29543;-72
2023/09/20 07:56:29;;;;;;;2.50;1.43;;;16.50;99.90;;;;;;467140;253;29351;-73
2023/09/20 07:58:36;;;;;;;2.10;1.70;;;16.60;99.90;;;;;;467130;250;29842;-72
2023/09/20 08:00:31;;;;;;;1.97;1.87;;;16.70;99.90;;;;;;466669;254;29046;-74
2023/09/20 08:02:32;;;;;;;5.53;2.23;;;16.80;99.90;;;;;;467128;254;28900;-72
2023/09/20 08:04:37;;;;;;;2.10;2.00;;;16.90;99.90;;;;;;467117;253;29039;-73
2023/09/20 08:06:36;;;;;;;3.17;2.33;;;17.00;99.90;;;;;;466936;254;28925;-72
2023/09/20 08:08:36;;;;;;;2.30;1.80;;;17.00;99.90;;;;;;467089;254;28935;-71
2023/09/20 08:10:38;;;;;;;2.10;1.90;;;17.00;99.90;;;;;;467099;253;28906;-73
2023/09/20 08:12:39;;;;;;;3.73;2.17;;;17.10;99.90;;;;;;466975;253;28822;-71
2023/09/20 08:14:40;;;;;;;3.63;2.00;;;17.10;99.90;;;;;;467010;253;29527;-72
2023/09/20 08:16:42;;;;;;;1.70;1.57;;;17.20;99.90;;;;;;467085;254;28982;-73
2023/09/20 08:21:04;;;;;;;3.20;1.90;;;17.30;99.90;;;;;;467089;254;29430;-72
2023/09/20 09:00:27;;;;;;;3.33;1.97;;;18.20;99.90;;;;;;467159;254;29037;-70
2023/09/20 09:02:29;;;;;;;3.00;1.60;;;18.20;99.90;;;;;;467127;254;28944;-71
2023/09/20 09:04:30;;;;;;;2.20;2.00;;;18.30;99.90;;;;;;467151;253;28937;-73
2023/09/20 09:06:31;;;;;;;4.43;1.70;;;18.50;99.90;;;;;;467140;253;28950;-73
2023/09/20 09:08:34;;;;;;;3.43;1.40;;;18.50;99.90;;;;;;467142;253;28972;-73
2023/09/20 09:10:34;;;;;;;4.23;1.50;;;18.60;99.90;;;;;;467041;254;28918;-73
2023/09/20 09:12:35;;;;;;;1.67;1.30;;;18.60;99.90;;;;;;467136;249;29421;-71
2023/09/20 09:14:36;;;;;;;1.73;1.63;;;18.70;99.90;;;;;;467157;253;29356;-74
2023/09/20 09:16:38;;;;;;;1.63;1.40;;;18.80;99.90;;;;;;467158;253;29404;-73
2023/09/20 09:18:39;;;;;;;1.70;1.60;;;19.00;99.90;;;;;;467128;253;29372;-72
2023/09/20 09:20:40;;;;;;;6.00;2.07;;;19.00;99.90;;;;;;467128;253;28847;-73
2023/09/20 09:22:41;;;;;;;3.67;1.60;;;19.00;99.90;;;;;;467130;253;28869;-72
2023/09/20 09:24:43;;;;;;;1.70;1.60;;;19.00;99.90;;;;;;467149;253;28849;-74
2023/09/20 09:26:44;;;;;;;2.63;1.60;;;18.90;99.90;;;;;;467096;254;28816;-72
2023/09/20 09:28:45;;;;;;;4.23;1.60;;;19.00;99.90;;;;;;467118;253;28921;-73
2023/09/20 09:30:46;;;;;;;2.07;1.60;;;19.00;99.90;;;;;;467108;253;28844;-72
2023/09/20 09:32:47;;;;;;;2.70;1.40;;;19.10;99.90;;;;;;467161;253;28899;-72
2023/09/20 09:34:49;;;;;;;1.60;1.50;;;19.20;99.90;;;;;;467167;253;28863;-73
2023/09/20 09:36:50;;;;;;;1.60;1.47;;;19.20;99.90;;;;;;467113;254;29515;-72
2023/09/20 09:38:51;;;;;;;1.97;1.60;;;19.20;99.90;;;;;;467108;253;29432;-73
2023/09/20 09:40:56;;;;;;;2.73;1.60;;;19.10;99.90;;;;;;467071;253;29488;-73
2023/09/20 09:42:54;;;;;;;2.30;1.70;;;19.00;99.90;;;;;;466811;254;29373;-73
2023/09/20 09:44:55;;;;;;;2.00;1.60;;;19.00;99.90;;;;;;466948;254;28994;-73
2023/09/20 09:46:56;;;;;;;1.77;1.60;;;19.00;99.90;;;;;;467121;253;28865;-73
2023/09/20 09:48:57;;;;;;;2.27;1.60;;;19.10;99.90;;;;;;467114;254;28966;-73
2023/09/20 09:51:04;;;;;;;1.70;1.50;;;19.30;99.90;;;;;;467154;253;28876;-74
2023/09/20 09:53:03;;;;;;;2.90;1.93;;;19.50;99.90;;;;;;467025;254;29368;-72
2023/09/20 09:55:04;;;;;;;2.70;1.57;;;19.60;99.90;;;;;;467128;253;29281;-73
2023/09/20 09:57:05;;;;;;;1.97;1.60;;;19.70;99.90;;;;;;467107;253;28869;-74
2023/09/20 09:59:07;;;;;;;2.43;1.73;;;19.70;99.90;;;;;;467149;253;28881;-74
2023/09/20 10:01:10;;;;;;;3.23;1.87;;;19.70;99.90;;;;;;467144;253;28954;-73
2023/09/20 10:03:09;;;;;;;4.13;1.60;;;19.70;99.90;;;;;;467061;253;28986;-73
2023/09/20 10:05:10;;;;;;;1.87;1.60;;;19.80;99.90;;;;;;467125;254;29035;-71
2023/09/20 10:07:16;;;;;;;3.53;1.87;;;19.90;99.90;;;;;;467118;253;28882;-72
2023/09/20 10:09:13;;;;;;;4.50;1.73;;;20.00;99.90;;;;;;466724;254;28884;-75
2023/09/20 10:11:15;;;;;;;5.83;1.70;;;20.00;99.90;;;;;;467152;253;28851;-72
2023/09/20 10:13:15;;;;;;;4.60;1.50;;;20.10;99.90;;;;;;467124;253;28860;-73
2023/09/20 10:15:18;;;;;;;3.03;1.87;;;20.10;99.90;;;;;;467106;253;29299;-72
2023/09/20 10:17:21;;;;;;;3.67;1.87;;;20.00;99.90;;;;;;467157;253;29340;-73
2023/09/20 10:19:19;;;;;;;4.70;1.70;;;20.10;99.90;;;;;;466794;254;29426;-74
2023/09/20 10:21:24;;;;;;;2.43;1.80;;;20.30;99.90;;;;;;467152;253;28940;-73
2023/09/20 10:23:22;;;;;;;3.07;1.40;;;20.40;99.90;;;;;;466932;254;28973;-74
2023/09/20 10:25:23;;;;;;;2.27;1.47;;;20.50;99.90;;;;;;467177;253;28948;-73
2023/09/20 10:27:24;;;;;;;2.73;1.60;;;20.50;99.90;;;;;;467149;253;28827;-72
2023/09/20 10:29:25;;;;;;;4.00;1.50;;;20.50;99.90;;;;;;467161;254;28962;-73
2023/09/20 10:31:31;;;;;;;1.60;1.50;;;20.60;99.90;;;;;;467141;254;28934;-73
2023/09/20 10:33:28;;;;;;;4.43;1.93;;;20.70;99.90;;;;;;466738;254;28872;-73
2023/09/20 10:35:33;;;;;;;1.80;1.53;;;20.80;99.90;;;;;;467174;253;29236;-74
2023/09/20 10:37:33;;;;;;;2.30;1.57;;;21.00;99.90;;;;;;467115;253;28901;-74
2023/09/20 10:39:35;;;;;;;3.70;1.83;;;21.10;99.90;;;;;;467164;253;28849;-73
2023/09/20 10:41:36;;;;;;;6.70;1.80;;;21.30;99.90;;;;;;467154;253;28857;-73
2023/09/20 10:43:37;;;;;;;3.60;1.70;;;21.40;99.90;;;;;;467150;253;28838;-73
2023/09/20 10:45:39;;;;;;;2.53;1.63;;;21.40;99.90;;;;;;467134;253;28848;-73
2023/09/20 10:47:40;;;;;;;4.30;1.60;;;21.30;99.90;;;;;;467111;253;28863;-73
2023/09/20 10:49:41;;;;;;;1.60;1.50;;;21.30;99.90;;;;;;467147;253;28837;-73
2023/09/20 10:51:42;;;;;;;2.60;1.50;;;21.20;99.90;;;;;;467123;254;28861;-73
2023/09/20 10:53:53;;;;;;;1.50;1.40;;;21.30;99.90;;;;;;467152;253;29389;-74
2023/09/20 10:55:54;;;;;;;2.10;1.60;;;21.60;99.90;;;;;;467169;253;29506;-74
2023/09/20 10:57:55;;;;;;;1.80;1.70;;;21.90;99.90;;;;;;467143;253;29284;-72
2023/09/20 10:59:57;;;;;;;3.13;1.70;;;22.00;99.90;;;;;;467160;253;28890;-73
2023/09/20 11:01:58;;;;;;;2.17;1.40;;;21.80;99.90;;;;;;467138;254;28999;-73
2023/09/20 11:03:59;;;;;;;1.57;1.40;;;21.70;99.90;;;;;;467156;253;28916;-72
2023/09/20 11:06:00;;;;;;;1.70;1.57;;;21.60;99.90;;;;;;467081;253;28857;-73
2023/09/20 11:08:12;;;;;;;5.03;1.73;;;21.50;99.90;;;;;;467078;253;28935;-72
2023/09/20 11:10:03;;;;;;;3.17;2.30;;;21.30;99.90;;;;;;465976;254;28911;-73
2023/09/20 11:12:07;;;;;;;4.03;1.90;;;21.30;99.90;;;;;;467176;253;29257;-76